createdAt,value
2023-04-18T00:01:55.789Z,13.07
2023-04-18T00:04:23.786Z,13.43
2023-04-18T00:06:51.914Z,12.77
2023-04-18T00:09:19.813Z,12.80
2023-04-18T00:11:48.947Z,12.23
2023-04-18T00:14:16.719Z,13.17
2023-04-18T00:16:44.567Z,12.23
2023-04-18T00:19:12.513Z,12.23
2023-04-18T00:21:44.911Z,13.90
2023-04-18T00:24:13.138Z,13.27
2023-04-18T00:26:41.236Z,17.30
2023-04-18T00:29:10.399Z,13.27
2023-04-18T00:31:38.228Z,12.33
2023-04-18T00:34:06.170Z,14.37
2023-04-18T00:36:33.964Z,12.77
2023-04-18T00:39:01.723Z,13.00
2023-04-18T00:41:31.312Z,12.60
2023-04-18T00:43:59.162Z,12.73
2023-04-18T00:46:28.327Z,12.13
2023-04-18T00:48:56.623Z,13.27
2023-04-18T00:51:24.845Z,14.40
2023-04-18T00:53:52.899Z,12.97
2023-04-18T00:56:21.149Z,13.10
2023-04-18T00:58:48.910Z,12.83
2023-04-18T01:01:18.133Z,13.50
2023-04-18T01:03:47.377Z,13.60
2023-04-18T01:06:15.491Z,12.10
2023-04-18T01:08:44.366Z,12.43
2023-04-18T01:11:12.237Z,11.77
2023-04-18T01:13:40.318Z,12.23
2023-04-18T01:16:08.624Z,13.77
2023-04-18T01:18:37.088Z,11.80
2023-04-18T01:21:06.862Z,12.50
2023-04-18T01:23:34.657Z,12.13
2023-04-18T01:26:03.750Z,11.90
2023-04-18T01:28:31.489Z,12.83
2023-04-18T01:30:59.319Z,11.83
2023-04-18T01:33:27.056Z,11.90
2023-04-18T01:35:54.982Z,11.10
2023-04-18T01:38:22.710Z,12.00
2023-04-18T01:40:50.850Z,11.97
2023-04-18T01:43:19.960Z,12.60
2023-04-18T01:45:48.240Z,12.23
2023-04-18T01:48:16.009Z,12.13
2023-04-18T01:50:43.892Z,11.73
2023-04-18T01:53:11.697Z,12.80
2023-04-18T01:55:39.524Z,11.50
2023-04-18T01:58:07.335Z,11.70
2023-04-18T02:00:36.465Z,11.53
2023-04-18T02:03:04.429Z,11.60
2023-04-18T02:05:32.457Z,12.07
2023-04-18T02:08:00.343Z,11.83
2023-04-18T02:10:28.148Z,12.17
2023-04-18T02:12:56.069Z,11.90
2023-04-18T02:15:24.922Z,11.30
2023-04-18T02:17:54.324Z,12.03
2023-04-18T02:20:22.551Z,11.17
2023-04-18T02:22:50.445Z,12.27
2023-04-18T02:25:18.636Z,11.27
2023-04-18T02:27:46.375Z,11.47
2023-04-18T02:30:14.737Z,11.63
2023-04-18T02:32:42.510Z,12.17
2023-04-18T02:35:12.577Z,11.20
2023-04-18T02:37:40.361Z,11.23
2023-04-18T02:40:09.762Z,11.77
2023-04-18T02:42:37.730Z,11.47
2023-04-18T02:45:06.466Z,11.53
2023-04-18T02:47:47.057Z,10.53
2023-04-18T02:50:20.767Z,10.60
2023-04-18T02:52:48.628Z,11.23
2023-04-18T02:55:16.372Z,11.13
2023-04-18T02:57:44.140Z,11.03
2023-04-18T03:00:13.559Z,11.10
2023-04-18T03:02:41.612Z,11.57
2023-04-18T03:05:10.024Z,11.20
2023-04-18T03:07:39.187Z,11.13
2023-04-18T03:10:07.822Z,10.87
2023-04-18T03:12:35.935Z,11.50
2023-04-18T03:15:03.736Z,10.67
2023-04-18T03:17:31.534Z,11.20
2023-04-18T03:19:59.459Z,12.13
2023-04-18T03:22:27.172Z,10.90
2023-04-18T03:24:56.379Z,11.70
2023-04-18T03:27:24.093Z,11.77
2023-04-18T03:29:51.835Z,10.63
2023-04-18T03:32:19.644Z,10.83
2023-04-18T03:34:47.342Z,10.57
2023-04-18T03:37:15.074Z,11.10
2023-04-18T03:39:42.937Z,10.67
2023-04-18T03:42:12.059Z,9.57
2023-04-18T03:44:39.919Z,12.03
2023-04-18T03:47:07.629Z,9.70
2023-04-18T03:49:35.393Z,10.13
2023-04-18T03:52:03.177Z,11.10
2023-04-18T03:54:33.661Z,9.63
2023-04-18T03:57:02.515Z,9.87
2023-04-18T03:59:32.457Z,10.93
2023-04-18T04:02:00.345Z,10.27
2023-04-18T04:04:28.304Z,10.30
2023-04-18T04:06:56.109Z,10.90
2023-04-18T04:09:23.872Z,10.23
2023-04-18T04:11:51.657Z,10.27
2023-04-18T04:14:19.392Z,9.90
2023-04-18T04:16:48.879Z,10.27
2023-04-18T04:19:16.737Z,10.87
2023-04-18T04:21:44.609Z,11.13
2023-04-18T04:24:13.817Z,10.47
2023-04-18T04:26:42.909Z,11.47
2023-04-18T04:29:11.244Z,11.67
2023-04-18T04:31:39.069Z,11.60
2023-04-18T04:34:08.865Z,9.97
2023-04-18T04:36:36.669Z,11.17
2023-04-18T04:39:05.300Z,10.70
2023-04-18T04:41:33.077Z,11.50
2023-04-18T04:44:01.843Z,12.23
2023-04-18T04:46:30.366Z,11.87
2023-04-18T04:48:58.448Z,11.13
2023-04-18T04:51:28.064Z,10.90
2023-04-18T04:53:55.778Z,10.03
2023-04-18T04:56:23.667Z,11.13
2023-04-18T04:58:51.622Z,11.53
2023-04-18T05:01:19.442Z,12.23
2023-04-18T05:03:47.316Z,11.37
2023-04-18T05:06:20.426Z,11.60
2023-04-18T05:08:50.027Z,11.10
2023-04-18T05:11:18.539Z,11.10
2023-04-18T05:13:46.269Z,12.43
2023-04-18T05:16:14.009Z,11.77
2023-04-18T05:18:42.042Z,11.40
2023-04-18T05:21:09.876Z,12.50
2023-04-18T05:23:41.113Z,10.47
2023-04-18T05:26:10.427Z,11.40
2023-04-18T05:28:38.270Z,11.60
2023-04-18T05:31:06.277Z,12.30
2023-04-18T05:33:40.796Z,11.40
2023-04-18T05:36:08.881Z,12.37
2023-04-18T05:38:36.746Z,11.87
2023-04-18T05:41:04.598Z,12.50
2023-04-18T05:43:33.783Z,12.60
2023-04-18T05:46:01.649Z,10.00
2023-04-18T05:48:29.634Z,11.63
2023-04-18T05:50:57.797Z,11.13
2023-04-18T05:53:25.803Z,10.43
2023-04-18T05:55:54.280Z,11.10
2023-04-18T05:58:22.168Z,11.90
2023-04-18T06:00:51.508Z,11.37
2023-04-18T06:03:19.780Z,11.40
2023-04-18T06:05:48.179Z,11.07
2023-04-18T06:08:16.193Z,10.20
2023-04-18T06:10:43.904Z,10.60
2023-04-18T06:13:11.698Z,12.33
2023-04-18T06:15:42.772Z,11.03
2023-04-18T06:18:11.915Z,10.70
2023-04-18T06:20:39.730Z,11.47
2023-04-18T06:23:08.289Z,10.90
2023-04-18T06:25:36.069Z,11.37
2023-04-18T06:28:03.837Z,11.07
2023-04-18T06:30:31.885Z,12.20
2023-04-18T06:32:59.814Z,11.23
2023-04-18T06:35:30.454Z,10.77
2023-04-18T06:37:58.266Z,11.43
2023-04-18T06:40:26.058Z,9.87
2023-04-18T06:42:53.869Z,11.17
2023-04-18T06:45:21.713Z,11.10
2023-04-18T06:47:51.346Z,10.90
2023-04-18T06:50:19.464Z,11.17
2023-04-18T06:52:48.769Z,10.13
2023-04-18T06:55:16.515Z,10.53
2023-04-18T06:57:44.883Z,10.07
2023-04-18T07:00:13.499Z,9.70
2023-04-18T07:02:42.185Z,10.57
2023-04-18T07:05:10.387Z,10.30
2023-04-18T07:07:38.210Z,10.93
2023-04-18T07:10:09.946Z,10.53
2023-04-18T07:12:37.723Z,9.87
2023-04-18T07:15:06.370Z,13.63
2023-04-18T07:17:34.284Z,10.60
2023-04-18T07:20:02.252Z,10.10
2023-04-18T07:22:30.247Z,9.40
2023-04-18T07:24:58.014Z,10.20
2023-04-18T07:27:27.277Z,10.23
2023-04-18T07:29:55.157Z,10.70
2023-04-18T07:32:23.277Z,10.97
2023-04-18T07:34:51.960Z,10.63
2023-04-18T07:37:21.332Z,10.77
2023-04-18T07:39:49.502Z,10.77
2023-04-18T07:42:17.282Z,10.90
2023-04-18T07:44:46.898Z,9.47
2023-04-18T07:47:14.644Z,10.13
2023-04-18T07:49:42.640Z,10.50
2023-04-18T07:52:10.772Z,10.80
2023-04-18T07:54:38.570Z,10.83
2023-04-18T07:57:06.393Z,9.47
2023-04-18T07:59:34.425Z,10.83
2023-04-18T08:02:03.699Z,9.50
2023-04-18T08:04:31.799Z,9.77
2023-04-18T08:07:00.146Z,10.03
2023-04-18T08:09:28.207Z,9.37
2023-04-18T08:11:56.879Z,10.20
2023-04-18T08:14:24.837Z,10.90
2023-04-18T08:16:52.819Z,10.40
2023-04-18T08:19:21.971Z,10.83
2023-04-18T08:21:52.279Z,10.10
2023-04-18T08:24:20.058Z,10.60
2023-04-18T08:26:47.855Z,10.37
2023-04-18T08:29:15.993Z,10.23
2023-04-18T08:31:44.080Z,10.03
2023-04-18T08:34:11.929Z,9.10
2023-04-18T08:36:41.144Z,9.60
2023-04-18T08:39:08.912Z,10.03
2023-04-18T08:41:38.343Z,9.57
2023-04-18T08:44:07.790Z,9.83
2023-04-18T08:46:37.240Z,11.00
2023-04-18T08:49:09.612Z,9.50
2023-04-18T08:51:43.189Z,10.40
2023-04-18T08:54:12.302Z,9.57
2023-04-18T08:56:41.002Z,10.13
2023-04-18T08:59:09.511Z,10.30
2023-04-18T09:01:57.587Z,9.50
2023-04-18T09:04:37.092Z,9.30
2023-04-18T09:07:08.209Z,10.20
2023-04-18T09:09:43.588Z,8.97
2023-04-18T09:12:14.318Z,10.40
2023-04-18T09:14:45.759Z,9.23
2023-04-18T09:17:15.168Z,9.23
2023-04-18T09:19:54.531Z,9.07
2023-04-18T09:22:23.784Z,9.10
2023-04-18T09:24:57.340Z,9.20
2023-04-18T09:27:25.513Z,9.57
2023-04-18T09:29:56.529Z,9.03
2023-04-18T09:32:27.361Z,8.83
2023-04-18T09:34:58.308Z,9.37
2023-04-18T09:37:27.752Z,7.97
2023-04-18T09:39:55.959Z,8.87
2023-04-18T09:42:24.380Z,10.33
2023-04-18T09:45:03.674Z,8.90
2023-04-18T09:47:32.248Z,8.33
2023-04-18T09:50:00.234Z,9.03
2023-04-18T09:52:34.150Z,9.17
2023-04-18T09:55:04.460Z,7.63
2023-04-18T09:57:33.618Z,8.77
2023-04-18T10:00:14.145Z,9.17
2023-04-18T10:02:50.436Z,8.87
2023-04-18T10:05:20.961Z,10.10
2023-04-18T10:07:51.668Z,9.23
2023-04-18T10:10:19.654Z,9.07
2023-04-18T10:12:50.549Z,9.57
2023-04-18T10:15:22.028Z,8.90
2023-04-18T10:20:26.664Z,9.30
2023-04-18T10:22:56.950Z,9.03
2023-04-18T10:25:49.266Z,10.10
2023-04-18T10:28:17.090Z,9.57
2023-04-18T10:31:04.247Z,9.77
2023-04-18T10:33:34.726Z,9.43
2023-04-18T10:36:06.122Z,9.13
2023-04-18T10:38:36.078Z,9.60
2023-04-18T10:41:18.115Z,8.47
2023-04-18T10:44:19.989Z,9.63
2023-04-18T10:47:22.031Z,10.07
2023-04-18T10:50:06.132Z,10.17
2023-04-18T10:52:34.469Z,8.60
2023-04-18T10:55:11.945Z,9.57
2023-04-18T10:57:41.279Z,9.63
2023-04-18T11:00:12.613Z,9.77
2023-04-18T11:02:41.957Z,10.67
2023-04-18T11:05:10.842Z,8.57
2023-04-18T11:07:40.556Z,8.73
2023-04-18T11:10:10.787Z,8.70
2023-04-18T11:12:41.227Z,9.97
2023-04-18T11:15:12.378Z,9.40
2023-04-18T11:17:41.213Z,8.73
2023-04-18T11:20:11.285Z,8.97
2023-04-18T11:22:47.094Z,8.67
2023-04-18T11:25:17.362Z,9.07
2023-04-18T11:27:47.451Z,9.70
2023-04-18T11:30:16.780Z,9.20
2023-04-18T11:32:44.808Z,10.02
2023-04-18T11:35:14.762Z,9.27
2023-04-18T11:37:45.287Z,9.37
2023-04-18T11:40:14.304Z,9.57
2023-04-18T11:42:43.713Z,10.07
2023-04-18T11:45:13.323Z,9.67
2023-04-18T11:47:42.899Z,10.07
2023-04-18T11:50:12.427Z,9.20
2023-04-18T11:52:41.366Z,9.70
2023-04-18T11:55:14.489Z,9.17
2023-04-18T11:57:44.003Z,9.00
2023-04-18T12:00:13.316Z,9.93
2023-04-18T12:02:43.335Z,9.40
2023-04-18T12:05:12.049Z,8.87
2023-04-18T12:07:41.171Z,9.10
2023-04-18T12:10:11.015Z,9.17
2023-04-18T12:12:38.730Z,9.87
2023-04-18T12:15:10.384Z,8.07
2023-04-18T12:17:39.011Z,9.53
2023-04-18T12:20:13.394Z,9.37
2023-04-18T12:22:47.349Z,12.30
2023-04-18T12:25:27.107Z,10.67
2023-04-18T12:27:58.924Z,11.80
2023-04-18T12:30:30.909Z,10.23
2023-04-18T12:33:01.932Z,11.23
2023-04-18T12:35:32.634Z,12.40
2023-04-18T12:38:01.662Z,10.50
2023-04-18T12:40:30.573Z,10.43
2023-04-18T12:42:58.423Z,10.80
2023-04-18T12:45:26.275Z,10.97
2023-04-18T12:47:55.585Z,10.83
2023-04-18T12:50:24.687Z,11.40
2023-04-18T12:52:53.580Z,11.63
2023-04-18T12:55:22.611Z,11.53
2023-04-18T12:57:52.231Z,12.03
2023-04-18T13:00:20.157Z,10.90
2023-04-18T13:02:48.058Z,11.57
2023-04-18T13:05:19.318Z,11.70
2023-04-18T13:07:49.502Z,10.70
2023-04-18T13:10:19.381Z,10.67
2023-04-18T13:12:47.695Z,11.37
2023-04-18T13:15:15.823Z,11.43
2023-04-18T13:17:47.313Z,11.60
2023-04-18T13:20:17.846Z,10.60
2023-04-18T13:22:49.392Z,9.70
2023-04-18T13:25:20.032Z,10.93
2023-04-18T13:27:50.121Z,10.73
2023-04-18T13:30:17.933Z,12.47
2023-04-18T13:32:46.298Z,11.20
2023-04-18T13:35:16.628Z,10.80
2023-04-18T13:37:44.342Z,11.30
2023-04-18T13:40:16.729Z,10.10
2023-04-18T13:42:47.685Z,10.17
2023-04-18T13:45:17.249Z,11.27
2023-04-18T13:47:45.277Z,10.10
2023-04-18T13:50:13.116Z,11.80
2023-04-18T13:52:40.955Z,10.57
2023-04-18T13:55:10.597Z,11.30
2023-04-18T13:57:41.038Z,11.37
2023-04-18T14:00:13.635Z,10.30
2023-04-18T14:02:41.805Z,11.63
2023-04-18T14:05:10.639Z,10.83
2023-04-18T14:07:38.723Z,9.67
2023-04-18T14:10:07.780Z,9.07
2023-04-18T14:12:35.549Z,8.90
2023-04-18T14:15:05.226Z,9.40
2023-04-18T14:17:32.963Z,8.30
2023-04-18T14:20:04.931Z,8.50
2023-04-18T14:22:32.707Z,8.57
2023-04-18T14:25:00.572Z,7.93
2023-04-18T14:27:28.667Z,11.13
2023-04-18T14:29:56.626Z,10.40
2023-04-18T14:32:26.153Z,9.33
2023-04-18T14:34:56.748Z,8.80
2023-04-18T14:37:28.952Z,9.10
2023-04-18T14:39:56.991Z,9.13
2023-04-18T14:42:24.800Z,8.73
2023-04-18T14:44:52.543Z,8.27
2023-04-18T14:47:20.766Z,8.93
2023-04-18T14:49:50.116Z,7.87
2023-04-18T14:52:17.901Z,10.10
2023-04-18T14:54:45.752Z,8.70
2023-04-18T14:57:13.641Z,8.53
2023-04-18T14:59:41.574Z,9.50
2023-04-18T15:02:09.577Z,8.87
2023-04-18T15:04:37.759Z,8.40
2023-04-18T15:07:08.140Z,8.43
2023-04-18T15:09:37.631Z,8.80
2023-04-18T15:12:06.365Z,8.47
2023-04-18T15:14:34.893Z,8.83
2023-04-18T15:17:03.079Z,9.53
2023-04-18T15:19:32.356Z,8.30
2023-04-18T15:22:00.144Z,7.07
2023-04-18T15:24:29.536Z,6.60
2023-04-18T15:26:58.589Z,6.33
2023-04-18T15:29:26.445Z,6.47
2023-04-18T15:31:54.622Z,6.00
2023-04-18T15:34:22.425Z,6.57
2023-04-18T15:36:50.516Z,6.33
2023-04-18T15:39:21.780Z,5.93
2023-04-18T15:41:53.445Z,5.70
2023-04-18T15:44:21.427Z,6.43
2023-04-18T15:46:49.632Z,5.33
2023-04-18T15:49:17.456Z,5.40
2023-04-18T15:51:45.319Z,5.53
2023-04-18T15:54:13.345Z,5.20
2023-04-18T15:56:43.837Z,4.97
2023-04-18T15:59:13.634Z,4.63
2023-04-18T16:01:42.317Z,5.27
2023-04-18T16:04:11.095Z,4.70
2023-04-18T16:06:39.145Z,4.10
2023-04-18T16:09:07.044Z,4.50
2023-04-18T16:11:34.820Z,4.50
2023-04-18T16:14:02.726Z,5.20
2023-04-18T16:16:32.027Z,4.30
2023-04-18T16:19:00.033Z,4.00
2023-04-18T16:21:28.426Z,3.53
2023-04-18T16:23:56.249Z,4.40
2023-04-18T16:26:24.949Z,4.20
2023-04-18T16:28:52.947Z,8.57
2023-04-18T16:31:21.091Z,4.70
2023-04-18T16:33:52.385Z,4.20
2023-04-18T16:36:20.440Z,4.03
2023-04-18T16:38:48.184Z,4.00
2023-04-18T16:41:16.143Z,3.57
2023-04-18T16:43:43.959Z,3.57
2023-04-18T16:46:13.683Z,3.93
2023-04-18T16:48:45.294Z,3.70
2023-04-18T16:51:14.505Z,4.03
2023-04-18T16:53:44.580Z,3.80
2023-04-18T16:56:12.327Z,3.40
2023-04-18T16:58:40.103Z,4.20
2023-04-18T17:01:08.298Z,3.87
2023-04-18T17:03:36.605Z,3.63
2023-04-18T17:06:05.715Z,3.57
2023-04-18T17:08:35.803Z,3.50
2023-04-18T17:11:03.924Z,3.70
2023-04-18T17:13:32.378Z,4.33
2023-04-18T17:16:00.214Z,3.90
2023-04-18T17:18:29.288Z,3.80
2023-04-18T17:20:57.324Z,3.70
2023-04-18T17:23:25.212Z,3.70
2023-04-18T17:25:54.457Z,3.30
2023-04-18T17:28:25.179Z,4.23
2023-04-18T17:30:52.894Z,3.27
2023-04-18T17:33:23.247Z,3.43
2023-04-18T17:35:51.401Z,3.83
2023-04-18T17:38:19.338Z,3.50
2023-04-18T17:40:47.121Z,4.00
2023-04-18T17:43:16.320Z,3.97
2023-04-18T17:45:44.223Z,4.40
2023-04-18T17:48:12.388Z,3.50
2023-04-18T17:50:42.054Z,3.63
2023-04-18T17:53:09.813Z,3.90
2023-04-18T17:55:37.646Z,4.30
2023-04-18T17:58:05.933Z,3.47
2023-04-18T18:00:35.092Z,3.57
2023-04-18T18:03:03.564Z,3.63
2023-04-18T18:05:31.504Z,4.03
2023-04-18T18:08:01.073Z,3.23
2023-04-18T18:10:29.407Z,4.40
2023-04-18T18:12:57.237Z,4.40
2023-04-18T18:15:25.282Z,3.97
2023-04-18T18:17:55.035Z,3.60
2023-04-18T18:20:23.037Z,3.93
2023-04-18T18:22:51.403Z,4.13
2023-04-18T18:25:20.719Z,3.83
2023-04-18T18:27:49.317Z,3.63
2023-04-18T18:30:18.229Z,4.10
2023-04-18T18:32:46.161Z,4.37
2023-04-18T18:35:15.360Z,4.10
2023-04-18T18:37:43.104Z,4.23
2023-04-18T18:40:11.826Z,4.40
2023-04-18T18:42:39.741Z,4.53
2023-04-18T18:45:09.005Z,4.07
2023-04-18T18:47:39.677Z,3.90
2023-04-18T18:50:08.561Z,4.07
2023-04-18T18:52:37.925Z,3.50
2023-04-18T18:55:06.460Z,3.70
2023-04-18T18:57:35.028Z,4.20
2023-04-18T19:00:03.045Z,4.40
2023-04-18T19:02:30.961Z,4.60
2023-04-18T19:04:59.176Z,4.27
2023-04-18T19:07:29.898Z,3.83
2023-04-18T19:10:25.044Z,4.00
2023-04-18T19:12:52.854Z,3.93
2023-04-18T19:15:20.679Z,3.60
2023-04-18T19:17:51.290Z,3.93
2023-04-18T19:20:19.177Z,4.30
2023-04-18T19:22:46.902Z,4.57
2023-04-18T19:25:16.164Z,3.73
2023-04-18T19:27:44.018Z,4.00
2023-04-18T19:30:12.524Z,4.20
2023-04-18T19:32:40.338Z,5.13
2023-04-18T19:35:09.857Z,4.37
2023-04-18T19:37:37.863Z,4.33
2023-04-18T19:40:07.336Z,4.20
2023-04-18T19:42:36.639Z,4.90
2023-04-18T19:45:07.985Z,4.10
2023-04-18T19:47:38.202Z,4.67
2023-04-18T19:50:07.380Z,4.77
2023-04-18T19:52:35.164Z,4.30
2023-04-18T19:55:03.037Z,4.77
2023-04-18T19:57:30.909Z,4.20
2023-04-18T20:00:00.239Z,4.73
2023-04-18T20:02:28.262Z,4.20
2023-04-18T20:04:56.625Z,5.07
2023-04-18T20:07:26.282Z,4.80
2023-04-18T20:09:54.403Z,5.00
2023-04-18T20:12:22.278Z,4.57
2023-04-18T20:14:50.068Z,4.97
2023-04-18T20:17:19.401Z,4.80
2023-04-18T20:19:49.867Z,4.60
2023-04-18T20:22:18.238Z,5.43
2023-04-18T20:24:46.384Z,5.30
2023-04-18T20:27:14.081Z,5.67
2023-04-18T20:29:42.115Z,5.20
2023-04-18T20:32:12.545Z,5.07
2023-04-18T20:34:41.651Z,4.93
2023-04-18T20:37:09.996Z,6.27
2023-04-18T20:39:38.088Z,5.40
2023-04-18T20:42:06.112Z,4.70
2023-04-18T20:44:35.044Z,5.53
2023-04-18T20:47:06.106Z,5.50
2023-04-18T20:49:34.148Z,5.90
2023-04-18T20:52:03.310Z,4.73
2023-04-18T20:54:31.088Z,5.77
2023-04-18T20:56:58.805Z,5.80
2023-04-18T20:59:27.973Z,5.80
2023-04-18T21:01:55.915Z,5.93
2023-04-18T21:04:24.190Z,5.40
2023-04-18T21:06:52.061Z,5.83
2023-04-18T21:09:21.582Z,6.07
2023-04-18T21:11:49.519Z,5.13
2023-04-18T21:14:17.548Z,5.57
2023-04-18T21:16:45.406Z,5.77
2023-04-18T21:19:13.192Z,5.97
2023-04-18T21:21:40.923Z,6.23
2023-04-18T21:24:08.791Z,5.67
2023-04-18T21:26:37.999Z,5.93
2023-04-18T21:29:06.062Z,6.93
2023-04-18T21:31:35.889Z,6.17
2023-04-18T21:34:05.559Z,6.30
2023-04-18T21:36:33.754Z,6.30
2023-04-18T21:39:02.193Z,6.60
2023-04-18T21:41:30.069Z,5.43
2023-04-18T21:43:59.188Z,6.37
2023-04-18T21:46:27.050Z,6.17
2023-04-18T21:48:54.778Z,6.53
2023-04-18T21:51:25.466Z,4.93
2023-04-18T21:53:53.290Z,6.47
2023-04-18T21:56:21.150Z,6.10
2023-04-18T21:58:49.136Z,6.57
2023-04-18T22:01:18.386Z,7.10
2023-04-18T22:03:46.412Z,6.10
2023-04-18T22:06:14.321Z,6.43
2023-04-18T22:08:43.636Z,6.10
2023-04-18T22:11:13.585Z,7.10
2023-04-18T22:13:44.840Z,7.90
2023-04-18T22:16:15.537Z,6.17
2023-04-18T22:18:44.796Z,7.00
2023-04-18T22:21:12.556Z,7.10
2023-04-18T22:23:40.352Z,6.10
2023-04-18T22:26:08.074Z,5.63
2023-04-18T22:28:35.833Z,6.50
2023-04-18T22:31:03.577Z,5.87
2023-04-18T22:33:31.361Z,5.93
2023-04-18T22:36:00.521Z,5.53
2023-04-18T22:38:28.231Z,6.00
2023-04-18T22:40:55.959Z,5.60
2023-04-18T22:43:24.815Z,5.57
2023-04-18T22:45:52.591Z,5.10
2023-04-18T22:48:20.448Z,4.80
2023-04-18T22:50:49.654Z,4.87
2023-04-18T22:53:18.832Z,4.83
2023-04-18T22:55:46.911Z,5.13
2023-04-18T22:58:14.737Z,5.37
2023-04-18T23:00:42.486Z,4.50
2023-04-18T23:03:10.410Z,4.40
2023-04-18T23:05:38.345Z,4.53
2023-04-18T23:08:07.015Z,4.20
2023-04-18T23:10:36.684Z,5.03
2023-04-18T23:13:04.516Z,4.87
2023-04-18T23:15:32.418Z,4.40
2023-04-18T23:18:00.241Z,3.83
2023-04-18T23:20:28.025Z,5.10
2023-04-18T23:22:56.046Z,4.37
2023-04-18T23:25:23.990Z,3.83
2023-04-18T23:27:53.060Z,4.43
2023-04-18T23:30:20.849Z,4.43
2023-04-18T23:32:48.556Z,4.30
2023-04-18T23:35:16.400Z,3.50
2023-04-18T23:37:44.180Z,4.20
2023-04-18T23:40:12.033Z,4.37
2023-04-18T23:42:39.729Z,4.00
2023-04-18T23:45:09.453Z,3.90
2023-04-18T23:47:37.218Z,4.97
2023-04-18T23:50:05.752Z,3.97
2023-04-18T23:52:33.474Z,3.70
2023-04-18T23:55:01.547Z,3.10
2023-04-18T23:57:29.279Z,3.37
2023-04-18T23:59:57.027Z,3.70
